Bassetts Creek, Alabama
Current Conditions -  °F | °C
As of 4:56 PM on Thursday 23 Oct 2014 (Local Time) from KMOB Reporting Station
Scattered Clouds Scattered Clouds  
Wind Chill: 73°   Ceiling: Unl
Heat Index: 73°   Visibility: 10mi
Dew Point: 41°   Wind: 8mph
Humidity: 31%   Direction: 10°N
Pressure: 30.04"   Gusts: NA
Location:  31.3942°N, 88.065°W
Report Text: KMOB 232156Z 01007KT 10SM FEW100 SCT250 23/05 A3004 RMK AO2 SLP171 T02280050
Loading
Personal Weather Stations






























Interactive Weather Map
Tropical Storm Tracking
New forecast layout! Learn more

10-Day Weather Forecast

Advertisements
Track Severe Weather on mobile